sensor_id;sensor_type;location;lat;lon;timestamp;pressure;altitude;pressure_sealevel;temperature;humidity
5755;BME280;2902;42.130;24.732;2023-02-02T00:00:53;99571.44;;;5.62;56.90
5755;BME280;2902;42.130;24.732;2023-02-02T00:03:20;99579.81;;;5.57;57.34
5755;BME280;2902;42.130;24.732;2023-02-02T00:05:48;99586.59;;;5.52;57.81
5755;BME280;2902;42.130;24.732;2023-02-02T00:08:16;99588.06;;;5.54;57.81
5755;BME280;2902;42.130;24.732;2023-02-02T00:10:43;99600.91;;;5.57;57.78
5755;BME280;2902;42.130;24.732;2023-02-02T00:13:10;99602.25;;;5.53;57.28
5755;BME280;2902;42.130;24.732;2023-02-02T00:15:39;99605.19;;;5.50;57.34
5755;BME280;2902;42.130;24.732;2023-02-02T00:18:05;99599.59;;;5.53;57.34
5755;BME280;2902;42.130;24.732;2023-02-02T00:20:32;99586.78;;;5.58;56.85
5755;BME280;2902;42.130;24.732;2023-02-02T00:23:00;99597.66;;;5.71;56.75
5755;BME280;2902;42.130;24.732;2023-02-02T00:25:27;99596.69;;;5.81;56.73
5755;BME280;2902;42.130;24.732;2023-02-02T00:27:53;99603.97;;;5.87;55.66
5755;BME280;2902;42.130;24.732;2023-02-02T00:30:20;99599.03;;;5.92;55.78
5755;BME280;2902;42.130;24.732;2023-02-02T00:32:48;99606.59;;;6.03;55.33
5755;BME280;2902;42.130;24.732;2023-02-02T00:35:16;99605.13;;;6.08;55.27
5755;BME280;2902;42.130;24.732;2023-02-02T00:37:43;99601.50;;;6.09;55.26
5755;BME280;2902;42.130;24.732;2023-02-02T00:40:10;99614.50;;;6.19;55.18
5755;BME280;2902;42.130;24.732;2023-02-02T00:42:37;99609.22;;;6.27;54.95
5755;BME280;2902;42.130;24.732;2023-02-02T00:45:05;99597.19;;;6.32;55.23
5755;BME280;2902;42.130;24.732;2023-02-02T00:47:44;99599.66;;;6.34;55.14
5755;BME280;2902;42.130;24.732;2023-02-02T00:50:14;99595.88;;;6.28;55.65
5755;BME280;2902;42.130;24.732;2023-02-02T00:52:43;99594.72;;;6.31;55.32
5755;BME280;2902;42.130;24.732;2023-02-02T00:55:11;99594.56;;;6.32;55.20
5755;BME280;2902;42.130;24.732;2023-02-02T00:57:38;99584.00;;;6.24;55.70
5755;BME280;2902;42.130;24.732;2023-02-02T01:00:06;99590.78;;;6.27;55.13
5755;BME280;2902;42.130;24.732;2023-02-02T01:02:36;99585.16;;;6.22;55.42
5755;BME280;2902;42.130;24.732;2023-02-02T01:05:03;99586.81;;;6.15;55.57
5755;BME280;2902;42.130;24.732;2023-02-02T01:07:32;99601.16;;;6.28;55.27
5755;BME280;2902;42.130;24.732;2023-02-02T01:09:58;99604.78;;;6.27;54.85
5755;BME280;2902;42.130;24.732;2023-02-02T01:12:25;99597.88;;;6.26;55.07
5755;BME280;2902;42.130;24.732;2023-02-02T01:14:52;99600.34;;;6.28;54.94
5755;BME280;2902;42.130;24.732;2023-02-02T01:17:18;99606.44;;;6.28;55.21
5755;BME280;2902;42.130;24.732;2023-02-02T01:19:45;99611.22;;;6.33;55.41
5755;BME280;2902;42.130;24.732;2023-02-02T01:22:12;99606.75;;;6.41;54.98
5755;BME280;2902;42.130;24.732;2023-02-02T01:24:40;99598.34;;;6.46;55.05
5755;BME280;2902;42.130;24.732;2023-02-02T01:27:07;99607.56;;;6.50;54.75
5755;BME280;2902;42.130;24.732;2023-02-02T01:29:34;99614.16;;;6.54;54.99
5755;BME280;2902;42.130;24.732;2023-02-02T01:32:01;99613.66;;;6.58;55.07
5755;BME280;2902;42.130;24.732;2023-02-02T01:34:27;99619.44;;;6.62;54.61
5755;BME280;2902;42.130;24.732;2023-02-02T01:36:54;99616.63;;;6.63;54.09
5755;BME280;2902;42.130;24.732;2023-02-02T01:39:21;99610.50;;;6.63;54.56
5755;BME280;2902;42.130;24.732;2023-02-02T01:41:49;99610.50;;;6.63;54.57
5755;BME280;2902;42.130;24.732;2023-02-02T01:47:34;99616.78;;;6.70;54.27
5755;BME280;2902;42.130;24.732;2023-02-02T01:50:04;99616.44;;;6.73;54.21
5755;BME280;2902;42.130;24.732;2023-02-02T01:52:32;99613.81;;;6.73;54.38
5755;BME280;2902;42.130;24.732;2023-02-02T01:55:03;99613.13;;;6.71;54.82
5755;BME280;2902;42.130;24.732;2023-02-02T01:57:37;99602.09;;;6.67;55.14
5755;BME280;2902;42.130;24.732;2023-02-02T02:00:07;99599.28;;;6.69;55.20
5755;BME280;2902;42.130;24.732;2023-02-02T02:02:36;99605.53;;;6.68;55.13
5755;BME280;2902;42.130;24.732;2023-02-02T02:05:05;99601.59;;;6.64;55.04
5755;BME280;2902;42.130;24.732;2023-02-02T02:07:33;99607.88;;;6.55;54.87
5755;BME280;2902;42.130;24.732;2023-02-02T02:10:00;99604.94;;;6.50;55.11
5755;BME280;2902;42.130;24.732;2023-02-02T02:12:26;99608.91;;;6.46;55.11
5755;BME280;2902;42.130;24.732;2023-02-02T02:14:54;99612.38;;;6.46;55.60
5755;BME280;2902;42.130;24.732;2023-02-02T02:17:48;99613.84;;;6.49;55.52
5755;BME280;2902;42.130;24.732;2023-02-02T02:20:33;99612.16;;;6.48;55.30
5755;BME280;2902;42.130;24.732;2023-02-02T02:23:48;99606.91;;;6.48;55.52
5755;BME280;2902;42.130;24.732;2023-02-02T02:26:50;99601.63;;;6.48;55.88
5755;BME280;2902;42.130;24.732;2023-02-02T02:29:44;99598.34;;;6.46;56.19
5755;BME280;2902;42.130;24.732;2023-02-02T02:32:23;99599.66;;;6.50;56.14
5755;BME280;2902;42.130;24.732;2023-02-02T02:34:56;99601.97;;;6.45;56.30
5755;BME280;2902;42.130;24.732;2023-02-02T02:37:32;99593.38;;;6.43;55.89
5755;BME280;2902;42.130;24.732;2023-02-02T02:40:07;99586.00;;;6.38;56.52
5755;BME280;2902;42.130;24.732;2023-02-02T02:42:40;99602.47;;;6.40;56.27
5755;BME280;2902;42.130;24.732;2023-02-02T02:45:11;99589.13;;;6.34;56.41
5755;BME280;2902;42.130;24.732;2023-02-02T02:47:40;99580.56;;;6.32;56.82
5755;BME280;2902;42.130;24.732;2023-02-02T02:50:08;99602.63;;;6.39;56.48
5755;BME280;2902;42.130;24.732;2023-02-02T02:52:35;99597.34;;;6.39;56.60
5755;BME280;2902;42.130;24.732;2023-02-02T02:55:04;99590.75;;;6.35;56.35
5755;BME280;2902;42.130;24.732;2023-02-02T02:57:46;99589.28;;;6.24;56.69
5755;BME280;2902;42.130;24.732;2023-02-02T03:00:27;99599.03;;;6.16;56.28
5755;BME280;2902;42.130;24.732;2023-02-02T03:03:04;99589.13;;;5.94;56.62
5755;BME280;2902;42.130;24.732;2023-02-02T03:05:38;99587.44;;;5.76;56.79
5755;BME280;2902;42.130;24.732;2023-02-02T03:08:13;99587.72;;;5.57;57.37
5755;BME280;2902;42.130;24.732;2023-02-02T03:10:42;99591.03;;;5.51;57.57
5755;BME280;2902;42.130;24.732;2023-02-02T03:13:12;99586.06;;;5.48;57.55
5755;BME280;2902;42.130;24.732;2023-02-02T03:15:39;99588.16;;;5.29;58.27
5755;BME280;2902;42.130;24.732;2023-02-02T03:18:08;99596.50;;;5.16;58.31
5755;BME280;2902;42.130;24.732;2023-02-02T03:20:34;99581.66;;;5.07;58.78
5755;BME280;2902;42.130;24.732;2023-02-02T03:23:01;99580.88;;;5.07;58.76
5755;BME280;2902;42.130;24.732;2023-02-02T03:25:28;99581.06;;;5.13;58.65
5755;BME280;2902;42.130;24.732;2023-02-02T03:27:55;99580.91;;;5.15;58.35
5755;BME280;2902;42.130;24.732;2023-02-02T03:30:22;99574.50;;;5.25;58.23
5755;BME280;2902;42.130;24.732;2023-02-02T03:32:49;99573.84;;;5.31;57.72
5755;BME280;2902;42.130;24.732;2023-02-02T03:35:18;99557.69;;;5.18;58.38
5755;BME280;2902;42.130;24.732;2023-02-02T03:37:46;99573.84;;;5.31;58.29
5755;BME280;2902;42.130;24.732;2023-02-02T03:40:13;99571.56;;;5.36;58.13
5755;BME280;2902;42.130;24.732;2023-02-02T03:42:40;99564.81;;;5.42;57.93
5755;BME280;2902;42.130;24.732;2023-02-02T03:45:07;99576.88;;;5.52;57.47
5755;BME280;2902;42.130;24.732;2023-02-02T03:47:34;99573.59;;;5.66;57.25
5755;BME280;2902;42.130;24.732;2023-02-02T03:50:01;99568.38;;;5.83;56.68
5755;BME280;2902;42.130;24.732;2023-02-02T03:52:29;99568.38;;;5.99;56.09
5755;BME280;2902;42.130;24.732;2023-02-02T03:54:55;99567.72;;;6.05;55.90
5755;BME280;2902;42.130;24.732;2023-02-02T03:57:22;99567.03;;;6.11;56.13
5755;BME280;2902;42.130;24.732;2023-02-02T03:59:49;99577.09;;;6.15;55.54
5755;BME280;2902;42.130;24.732;2023-02-02T04:02:16;99582.53;;;6.22;55.53
5755;BME280;2902;42.130;24.732;2023-02-02T04:04:42;99579.41;;;6.18;55.60
5755;BME280;2902;42.130;24.732;2023-02-02T04:07:09;99578.91;;;6.23;55.54
5755;BME280;2902;42.130;24.732;2023-02-02T04:09:37;99570.66;;;6.18;55.54
5755;BME280;2902;42.130;24.732;2023-02-02T04:12:04;99566.56;;;6.15;56.37
5755;BME280;2902;42.130;24.732;2023-02-02T04:14:31;99576.94;;;6.25;55.63
5755;BME280;2902;42.130;24.732;2023-02-02T04:16:58;99573.47;;;6.16;55.78
5755;BME280;2902;42.130;24.732;2023-02-02T04:19:24;99572.66;;;6.00;56.50
5755;BME280;2902;42.130;24.732;2023-02-02T04:21:52;99580.59;;;6.00;56.94
5755;BME280;2902;42.130;24.732;2023-02-02T04:24:19;99570.03;;;6.00;56.44
5755;BME280;2902;42.130;24.732;2023-02-02T04:26:48;99571.00;;;6.07;56.05
5755;BME280;2902;42.130;24.732;2023-02-02T04:29:15;99583.38;;;6.14;56.43
5755;BME280;2902;42.130;24.732;2023-02-02T04:31:41;99587.50;;;6.17;56.08
5755;BME280;2902;42.130;24.732;2023-02-02T04:34:08;99587.81;;;6.06;56.27
5755;BME280;2902;42.130;24.732;2023-02-02T04:36:35;99596.56;;;6.14;56.15
5755;BME280;2902;42.130;24.732;2023-02-02T04:39:02;99597.38;;;6.15;56.22
5755;BME280;2902;42.130;24.732;2023-02-02T04:41:29;99597.38;;;6.23;55.99
5755;BME280;2902;42.130;24.732;2023-02-02T04:43:57;99602.00;;;6.13;56.09
5755;BME280;2902;42.130;24.732;2023-02-02T04:46:24;99603.00;;;6.20;55.80
5755;BME280;2902;42.130;24.732;2023-02-02T04:48:52;99614.84;;;6.24;55.83
5755;BME280;2902;42.130;24.732;2023-02-02T04:51:19;99606.78;;;6.17;55.52
5755;BME280;2902;42.130;24.732;2023-02-02T04:53:45;99609.06;;;5.96;56.28
5755;BME280;2902;42.130;24.732;2023-02-02T04:56:14;99596.84;;;5.79;56.69
5755;BME280;2902;42.130;24.732;2023-02-02T04:58:41;99611.69;;;5.96;56.24
5755;BME280;2902;42.130;24.732;2023-02-02T05:01:11;99605.56;;;5.79;56.31
5755;BME280;2902;42.130;24.732;2023-02-02T05:03:38;99613.16;;;5.74;56.84
5755;BME280;2902;42.130;24.732;2023-02-02T05:06:05;99623.38;;;5.86;56.86
5755;BME280;2902;42.130;24.732;2023-02-02T05:08:32;99623.91;;;5.81;56.59
5755;BME280;2902;42.130;24.732;2023-02-02T05:10:59;99621.09;;;5.83;56.61
5755;BME280;2902;42.130;24.732;2023-02-02T05:13:26;99624.06;;;5.88;56.53
5755;BME280;2902;42.130;24.732;2023-02-02T05:15:53;99629.34;;;5.88;56.73
5755;BME280;2902;42.130;24.732;2023-02-02T05:18:22;99616.44;;;5.76;56.66
5755;BME280;2902;42.130;24.732;2023-02-02T05:20:49;99638.34;;;5.77;56.94
5755;BME280;2902;42.130;24.732;2023-02-02T05:23:16;99634.22;;;5.74;57.06
5755;BME280;2902;42.130;24.732;2023-02-02T05:25:43;99635.53;;;5.62;57.36
5755;BME280;2902;42.130;24.732;2023-02-02T05:28:10;99638.66;;;5.74;57.45
5755;BME280;2902;42.130;24.732;2023-02-02T05:30:38;99629.97;;;5.82;57.18
5755;BME280;2902;42.130;24.732;2023-02-02T05:33:04;99641.84;;;5.86;57.03
5755;BME280;2902;42.130;24.732;2023-02-02T05:35:32;99644.47;;;5.86;57.14
5755;BME280;2902;42.130;24.732;2023-02-02T05:37:59;99644.47;;;5.86;56.75
5755;BME280;2902;42.130;24.732;2023-02-02T05:40:26;99652.38;;;5.86;56.75
5755;BME280;2902;42.130;24.732;2023-02-02T05:42:53;99652.75;;;5.91;56.79
5755;BME280;2902;42.130;24.732;2023-02-02T05:45:20;99661.13;;;5.94;57.45
5755;BME280;2902;42.130;24.732;2023-02-02T05:47:46;99655.03;;;5.94;56.93
5755;BME280;2902;42.130;24.732;2023-02-02T05:50:13;99651.75;;;5.92;56.60
5755;BME280;2902;42.130;24.732;2023-02-02T05:52:42;99657.34;;;5.89;56.54
5755;BME280;2902;42.130;24.732;2023-02-02T05:55:10;99652.91;;;5.89;56.97
5755;BME280;2902;42.130;24.732;2023-02-02T05:57:37;99655.19;;;5.92;57.10
5755;BME280;2902;42.130;24.732;2023-02-02T06:00:04;99650.59;;;6.02;56.74
5755;BME280;2902;42.130;24.732;2023-02-02T06:02:31;99664.78;;;6.09;56.44
5755;BME280;2902;42.130;24.732;2023-02-02T06:04:58;99655.38;;;6.23;56.29
5755;BME280;2902;42.130;24.732;2023-02-02T06:07:25;99650.09;;;6.55;58.51
5755;BME280;2902;42.130;24.732;2023-02-02T06:09:53;99660.94;;;6.84;56.03
5755;BME280;2902;42.130;24.732;2023-02-02T06:12:19;99656.13;;;7.03;54.06
5755;BME280;2902;42.130;24.732;2023-02-02T06:14:46;99656.22;;;7.26;53.79
5755;BME280;2902;42.130;24.732;2023-02-02T06:17:13;99652.16;;;7.46;52.81
5755;BME280;2902;42.130;24.732;2023-02-02T06:19:39;99661.09;;;7.75;52.97
5755;BME280;2902;42.130;24.732;2023-02-02T06:22:06;99675.63;;;8.02;50.94
5755;BME280;2902;42.130;24.732;2023-02-02T06:24:33;99675.50;;;8.26;49.18
5755;BME280;2902;42.130;24.732;2023-02-02T06:27:01;99682.72;;;8.32;48.38
5755;BME280;2902;42.130;24.732;2023-02-02T06:29:28;99685.63;;;8.45;48.66
5755;BME280;2902;42.130;24.732;2023-02-02T06:31:55;99695.97;;;8.69;47.70
5755;BME280;2902;42.130;24.732;2023-02-02T06:34:21;99681.31;;;8.81;46.99
5755;BME280;2902;42.130;24.732;2023-02-02T06:36:48;99649.53;;;8.44;45.62
5755;BME280;2902;42.130;24.732;2023-02-02T06:39:15;99698.69;;;8.61;46.00
5755;BME280;2902;42.130;24.732;2023-02-02T06:41:42;99685.38;;;8.69;46.19
5755;BME280;2902;42.130;24.732;2023-02-02T06:44:12;99693.84;;;8.87;45.40
5755;BME280;2902;42.130;24.732;2023-02-02T06:46:39;99683.97;;;8.81;44.44
5755;BME280;2902;42.130;24.732;2023-02-02T06:49:06;99682.91;;;8.90;44.30
5755;BME280;2902;42.130;24.732;2023-02-02T06:51:33;99673.78;;;9.07;45.30
5755;BME280;2902;42.130;24.732;2023-02-02T06:54:00;99689.50;;;9.23;43.95
5755;BME280;2902;42.130;24.732;2023-02-02T06:56:28;99686.03;;;9.37;43.29
5755;BME280;2902;42.130;24.732;2023-02-02T06:58:55;99685.47;;;9.56;43.55
5755;BME280;2902;42.130;24.732;2023-02-02T07:01:23;99690.94;;;9.69;43.25
5755;BME280;2902;42.130;24.732;2023-02-02T07:03:49;99690.03;;;9.62;43.95
5755;BME280;2902;42.130;24.732;2023-02-02T07:06:18;99699.53;;;9.56;44.06
5755;BME280;2902;42.130;24.732;2023-02-02T07:08:46;99702.84;;;9.44;44.33
5755;BME280;2902;42.130;24.732;2023-02-02T07:11:15;99700.81;;;9.46;44.37
5755;BME280;2902;42.130;24.732;2023-02-02T07:13:42;99712.16;;;9.69;44.34
5755;BME280;2902;42.130;24.732;2023-02-02T07:16:09;99721.63;;;9.78;43.95
5755;BME280;2902;42.130;24.732;2023-02-02T07:18:39;99716.63;;;9.68;43.78
5755;BME280;2902;42.130;24.732;2023-02-02T07:21:07;99713.50;;;9.79;44.21
5755;BME280;2902;42.130;24.732;2023-02-02T07:23:34;99717.22;;;10.14;42.47
5755;BME280;2902;42.130;24.732;2023-02-02T07:26:02;99719.25;;;10.54;41.84
5755;BME280;2902;42.130;24.732;2023-02-02T07:28:29;99707.63;;;10.55;41.98
5755;BME280;2902;42.130;24.732;2023-02-02T07:30:56;99721.72;;;10.76;41.47
5755;BME280;2902;42.130;24.732;2023-02-02T07:33:23;99718.31;;;10.89;40.72
5755;BME280;2902;42.130;24.732;2023-02-02T07:35:51;99715.53;;;10.97;40.83
5755;BME280;2902;42.130;24.732;2023-02-02T07:38:18;99708.66;;;11.09;40.09
5755;BME280;2902;42.130;24.732;2023-02-02T07:40:45;99716.72;;;11.22;39.91
5755;BME280;2902;42.130;24.732;2023-02-02T07:43:12;99713.28;;;11.22;39.36
5755;BME280;2902;42.130;24.732;2023-02-02T07:45:39;99700.16;;;11.20;39.75
5755;BME280;2902;42.130;24.732;2023-02-02T07:48:05;99704.53;;;11.34;39.81
5755;BME280;2902;42.130;24.732;2023-02-02T07:50:32;99710.09;;;11.67;39.64
5755;BME280;2902;42.130;24.732;2023-02-02T07:53:00;99706.72;;;11.99;38.92
5755;BME280;2902;42.130;24.732;2023-02-02T07:55:27;99709.56;;;11.97;38.62
5755;BME280;2902;42.130;24.732;2023-02-02T07:57:54;99706.97;;;11.63;38.46
5755;BME280;2902;42.130;24.732;2023-02-02T08:00:23;99714.44;;;11.19;39.79
5755;BME280;2902;42.130;24.732;2023-02-02T08:02:50;99708.72;;;10.88;40.38
5755;BME280;2902;42.130;24.732;2023-02-02T08:05:17;99722.03;;;10.67;40.77
5755;BME280;2902;42.130;24.732;2023-02-02T08:07:44;99716.84;;;10.59;41.13
5755;BME280;2902;42.130;24.732;2023-02-02T08:10:12;99717.66;;;10.59;41.48
5755;BME280;2902;42.130;24.732;2023-02-02T08:12:39;99715.94;;;11.00;41.17
5755;BME280;2902;42.130;24.732;2023-02-02T08:15:06;99713.41;;;11.48;39.88
5755;BME280;2902;42.130;24.732;2023-02-02T08:17:33;99715.72;;;11.57;39.39
5755;BME280;2902;42.130;24.732;2023-02-02T08:20:00;99715.88;;;11.83;38.81
5755;BME280;2902;42.130;24.732;2023-02-02T08:22:26;99705.06;;;11.91;38.39
5755;BME280;2902;42.130;24.732;2023-02-02T08:24:53;99719.34;;;11.77;38.42
5755;BME280;2902;42.130;24.732;2023-02-02T08:27:21;99704.56;;;11.41;39.09
5755;BME280;2902;42.130;24.732;2023-02-02T08:29:48;99707.44;;;11.12;38.93
5755;BME280;2902;42.130;24.732;2023-02-02T08:32:14;99705.13;;;11.02;39.71
5755;BME280;2902;42.130;24.732;2023-02-02T08:34:41;99703.44;;;11.22;39.38
5755;BME280;2902;42.130;24.732;2023-02-02T08:37:09;99693.13;;;11.74;38.82
5755;BME280;2902;42.130;24.732;2023-02-02T08:39:36;99701.63;;;12.04;38.69
5755;BME280;2902;42.130;24.732;2023-02-02T08:42:03;99697.00;;;12.51;36.61
5755;BME280;2902;42.130;24.732;2023-02-02T08:44:31;99692.50;;;12.52;36.51
5755;BME280;2902;42.130;24.732;2023-02-02T08:46:58;99700.53;;;12.84;35.44
5755;BME280;2902;42.130;24.732;2023-02-02T08:49:25;99703.16;;;13.30;34.87
5755;BME280;2902;42.130;24.732;2023-02-02T08:51:52;99702.72;;;13.39;34.41
5755;BME280;2902;42.130;24.732;2023-02-02T08:54:18;99701.28;;;13.43;34.14
5755;BME280;2902;42.130;24.732;2023-02-02T08:56:45;99700.78;;;13.72;33.68
5755;BME280;2902;42.130;24.732;2023-02-02T08:59:12;99693.19;;;13.69;33.85
5755;BME280;2902;42.130;24.732;2023-02-02T09:01:40;99693.91;;;14.02;33.18
5755;BME280;2902;42.130;24.732;2023-02-02T09:04:10;99677.38;;;14.49;33.29
5755;BME280;2902;42.130;24.732;2023-02-02T09:06:40;99675.91;;;14.84;32.04
5755;BME280;2902;42.130;24.732;2023-02-02T09:09:08;99676.25;;;14.63;31.91
5755;BME280;2902;42.130;24.732;2023-02-02T09:11:37;99665.59;;;14.32;32.82
5755;BME280;2902;42.130;24.732;2023-02-02T09:14:04;99645.72;;;14.22;32.67
5755;BME280;2902;42.130;24.732;2023-02-02T09:16:32;99651.59;;;14.30;32.37
5755;BME280;2902;42.130;24.732;2023-02-02T09:19:01;99638.72;;;14.14;33.02
5755;BME280;2902;42.130;24.732;2023-02-02T09:21:28;99637.81;;;14.33;32.34
5755;BME280;2902;42.130;24.732;2023-02-02T09:23:55;99638.44;;;14.60;32.71
5755;BME280;2902;42.130;24.732;2023-02-02T09:26:23;99633.25;;;14.89;31.83
5755;BME280;2902;42.130;24.732;2023-02-02T09:28:53;99629.47;;;15.39;32.29
5755;BME280;2902;42.130;24.732;2023-02-02T09:31:20;99629.44;;;15.75;35.49
5755;BME280;2902;42.130;24.732;2023-02-02T09:33:48;99618.06;;;16.21;34.98
5755;BME280;2902;42.130;24.732;2023-02-02T09:36:18;99624.31;;;16.04;30.27
5755;BME280;2902;42.130;24.732;2023-02-02T09:38:45;99616.97;;;16.11;31.08
5755;BME280;2902;42.130;24.732;2023-02-02T09:44:15;99615.16;;;15.45;30.87
5755;BME280;2902;42.130;24.732;2023-02-02T09:46:51;99617.53;;;15.17;32.31
5755;BME280;2902;42.130;24.732;2023-02-02T09:49:23;99600.28;;;15.49;35.88
5755;BME280;2902;42.130;24.732;2023-02-02T09:51:57;99607.25;;;15.68;32.34
5755;BME280;2902;42.130;24.732;2023-02-02T09:54:27;99616.00;;;15.93;34.25
5755;BME280;2902;42.130;24.732;2023-02-02T09:56:59;99605.41;;;15.98;30.27
5755;BME280;2902;42.130;24.732;2023-02-02T09:59:32;99596.44;;;15.45;31.41
5755;BME280;2902;42.130;24.732;2023-02-02T10:02:04;99591.50;;;15.78;31.61
5755;BME280;2902;42.130;24.732;2023-02-02T10:04:34;99587.56;;;15.93;30.98
5755;BME280;2902;42.130;24.732;2023-02-02T10:07:07;99580.84;;;16.02;30.44
5755;BME280;2902;42.130;24.732;2023-02-02T10:09:39;99571.03;;;15.96;30.76
5755;BME280;2902;42.130;24.732;2023-02-02T10:12:18;99552.34;;;15.12;30.90
5755;BME280;2902;42.130;24.732;2023-02-02T10:14:53;99548.09;;;15.22;31.36
5755;BME280;2902;42.130;24.732;2023-02-02T10:17:34;99544.63;;;15.40;32.65
5755;BME280;2902;42.130;24.732;2023-02-02T10:20:10;99542.09;;;16.16;35.65
5755;BME280;2902;42.130;24.732;2023-02-02T10:22:41;99530.38;;;16.51;31.16
5755;BME280;2902;42.130;24.732;2023-02-02T10:25:11;99527.78;;;16.91;32.52
5755;BME280;2902;42.130;24.732;2023-02-02T10:27:39;99509.38;;;17.22;36.49
5755;BME280;2902;42.130;24.732;2023-02-02T10:30:14;99511.09;;;17.40;32.61
5755;BME280;2902;42.130;24.732;2023-02-02T10:32:47;99519.44;;;17.15;30.01
5755;BME280;2902;42.130;24.732;2023-02-02T10:35:31;99521.47;;;16.97;29.51
5755;BME280;2902;42.130;24.732;2023-02-02T10:38:07;99509.38;;;17.22;29.76
5755;BME280;2902;42.130;24.732;2023-02-02T10:40:46;99513.56;;;17.30;28.57
5755;BME280;2902;42.130;24.732;2023-02-02T10:43:46;99508.09;;;17.25;28.47
5755;BME280;2902;42.130;24.732;2023-02-02T10:46:19;99507.47;;;16.95;28.31
5755;BME280;2902;42.130;24.732;2023-02-02T10:48:48;99495.03;;;16.66;28.47
5755;BME280;2902;42.130;24.732;2023-02-02T10:51:19;99504.84;;;16.60;28.61
5755;BME280;2902;42.130;24.732;2023-02-02T10:53:50;99490.72;;;16.65;28.97
5755;BME280;2902;42.130;24.732;2023-02-02T10:56:18;99479.56;;;16.45;29.35
5755;BME280;2902;42.130;24.732;2023-02-02T10:58:54;99475.69;;;16.52;29.40
5755;BME280;2902;42.130;24.732;2023-02-02T11:01:22;99476.25;;;16.66;29.39
5755;BME280;2902;42.130;24.732;2023-02-02T11:03:48;99471.47;;;16.68;28.85
5755;BME280;2902;42.130;24.732;2023-02-02T11:06:36;99460.16;;;16.54;29.30
5755;BME280;2902;42.130;24.732;2023-02-02T11:09:17;99458.88;;;16.34;29.06
5755;BME280;2902;42.130;24.732;2023-02-02T11:11:45;99458.75;;;16.40;29.03
5755;BME280;2902;42.130;24.732;2023-02-02T11:14:20;99456.56;;;16.60;29.04
5755;BME280;2902;42.130;24.732;2023-02-02T11:16:59;99448.91;;;16.41;28.95
5755;BME280;2902;42.130;24.732;2023-02-02T11:19:31;99439.19;;;16.17;29.51
5755;BME280;2902;42.130;24.732;2023-02-02T11:22:00;99429.19;;;16.47;29.25
5755;BME280;2902;42.130;24.732;2023-02-02T11:24:30;99428.94;;;16.48;29.07
5755;BME280;2902;42.130;24.732;2023-02-02T11:27:02;99409.44;;;16.64;29.03
5755;BME280;2902;42.130;24.732;2023-02-02T11:29:32;99403.94;;;16.71;29.11
5755;BME280;2902;42.130;24.732;2023-02-02T11:32:17;99389.41;;;16.95;30.14
5755;BME280;2902;42.130;24.732;2023-02-02T11:34:44;99378.00;;;17.16;30.23
5755;BME280;2902;42.130;24.732;2023-02-02T11:37:13;99377.56;;;17.07;28.55
5755;BME280;2902;42.130;24.732;2023-02-02T11:39:42;99379.63;;;16.61;27.93
5755;BME280;2902;42.130;24.732;2023-02-02T11:42:13;99385.47;;;16.23;27.96
5755;BME280;2902;42.130;24.732;2023-02-02T11:44:44;99369.47;;;16.40;29.47
5755;BME280;2902;42.130;24.732;2023-02-02T11:47:18;99353.63;;;16.27;27.94
5755;BME280;2902;42.130;24.732;2023-02-02T11:49:46;99359.00;;;16.27;27.94
5755;BME280;2902;42.130;24.732;2023-02-02T11:52:18;99360.91;;;15.92;27.20
5755;BME280;2902;42.130;24.732;2023-02-02T11:54:51;99340.84;;;15.82;28.13
5755;BME280;2902;42.130;24.732;2023-02-02T11:57:20;99351.34;;;15.96;27.42
5755;BME280;2902;42.130;24.732;2023-02-02T11:59:48;99346.81;;;15.73;26.39
5755;BME280;2902;42.130;24.732;2023-02-02T12:02:28;99338.75;;;15.61;26.96
5755;BME280;2902;42.130;24.732;2023-02-02T12:05:12;99359.34;;;15.49;26.65
5755;BME280;2902;42.130;24.732;2023-02-02T12:07:40;99359.78;;;15.35;26.93
5755;BME280;2902;42.130;24.732;2023-02-02T12:10:15;99351.88;;;14.99;27.36
5755;BME280;2902;42.130;24.732;2023-02-02T12:12:51;99351.13;;;14.80;27.74
5755;BME280;2902;42.130;24.732;2023-02-02T12:15:27;99352.22;;;14.91;27.79
5755;BME280;2902;42.130;24.732;2023-02-02T12:18:03;99347.22;;;14.94;27.52
5755;BME280;2902;42.130;24.732;2023-02-02T12:20:39;99334.25;;;15.09;28.44
5755;BME280;2902;42.130;24.732;2023-02-02T12:23:33;99326.91;;;15.16;28.60
5755;BME280;2902;42.130;24.732;2023-02-02T12:26:11;99334.56;;;15.42;28.15
5755;BME280;2902;42.130;24.732;2023-02-02T12:29:03;99332.13;;;15.41;27.36
5755;BME280;2902;42.130;24.732;2023-02-02T12:31:44;99320.09;;;15.32;27.67
5755;BME280;2902;42.130;24.732;2023-02-02T12:34:21;99336.38;;;15.30;27.35
5755;BME280;2902;42.130;24.732;2023-02-02T12:36:56;99337.13;;;15.37;27.58
5755;BME280;2902;42.130;24.732;2023-02-02T12:39:32;99334.81;;;15.11;28.08
5755;BME280;2902;42.130;24.732;2023-02-02T12:45:25;99331.66;;;14.73;27.78
5755;BME280;2902;42.130;24.732;2023-02-02T12:48:06;99324.00;;;14.47;27.60
5755;BME280;2902;42.130;24.732;2023-02-02T12:50:41;99322.94;;;14.30;28.18
5755;BME280;2902;42.130;24.732;2023-02-02T12:53:23;99326.06;;;14.45;28.21
5755;BME280;2902;42.130;24.732;2023-02-02T12:55:59;99324.44;;;14.44;29.43
5755;BME280;2902;42.130;24.732;2023-02-02T12:58:36;99322.34;;;14.46;28.80
5755;BME280;2902;42.130;24.732;2023-02-02T13:01:18;99314.94;;;14.48;29.43
5755;BME280;2902;42.130;24.732;2023-02-02T13:10:00;99300.31;;;14.33;29.21
5755;BME280;2902;42.130;24.732;2023-02-02T13:12:31;99303.22;;;14.31;29.81
5755;BME280;2902;42.130;24.732;2023-02-02T13:15:02;99298.41;;;14.22;28.87
5755;BME280;2902;42.130;24.732;2023-02-02T13:17:38;99272.50;;;14.04;28.84
5755;BME280;2902;42.130;24.732;2023-02-02T13:20:17;99286.44;;;14.06;28.64
5755;BME280;2902;42.130;24.732;2023-02-02T13:22:46;99299.78;;;13.88;29.04
5755;BME280;2902;42.130;24.732;2023-02-02T13:25:18;99283.75;;;13.70;28.56
5755;BME280;2902;42.130;24.732;2023-02-02T13:27:47;99288.13;;;13.65;29.31
5755;BME280;2902;42.130;24.732;2023-02-02T13:30:24;99287.63;;;13.74;29.35
5755;BME280;2902;42.130;24.732;2023-02-02T13:32:57;99278.72;;;13.80;29.30
5755;BME280;2902;42.130;24.732;2023-02-02T13:35:28;99273.38;;;13.80;29.41
5755;BME280;2902;42.130;24.732;2023-02-02T13:38:03;99286.28;;;13.65;29.58
5755;BME280;2902;42.130;24.732;2023-02-02T13:40:33;99276.94;;;13.74;29.56
5755;BME280;2902;42.130;24.732;2023-02-02T13:43:12;99279.91;;;13.84;29.47
5755;BME280;2902;42.130;24.732;2023-02-02T13:45:49;99283.91;;;13.93;30.19
5755;BME280;2902;42.130;24.732;2023-02-02T13:48:30;99282.28;;;13.92;30.05